Time;durP1;ratioP1;P1;durP2;ratioP2;P2;SDS_P1;SDS_P2;PMS_P1;PMS_P2;Temp;Humidity;BMP_temperature;BMP_pressure;BME280_temperature;BME280_humidity;BME280_pressure;Samples;Min_cycle;Max_cycle;Signal;HPM_P1;HPM_P2
2022/11/26 00:00:18;;;;;;;24.17;10.30;;;-8.90;99.90;;;;;;5096095;28;20435;-81
2022/11/26 00:02:45;;;;;;;25.63;9.97;;;-9.30;99.90;;;;;;5089724;28;20194;-78
2022/11/26 00:05:13;;;;;;;12.90;9.63;;;-9.00;99.90;;;;;;5108322;27;20489;-73
2022/11/26 00:07:41;;;;;;;22.77;10.23;;;-9.60;99.90;;;;;;5078065;28;20634;-78
2022/11/26 00:10:20;;;;;;;17.43;10.20;;;-9.30;99.90;;;;;;5092958;28;20705;-75
2022/11/26 00:12:46;;;;;;;23.53;9.93;;;-9.80;99.90;;;;;;5092405;28;20729;-80
2022/11/26 00:15:22;;;;;;;17.83;9.40;;;-9.30;99.90;;;;;;5096085;28;20424;-74
2022/11/26 00:17:49;;;;;;;18.67;9.70;;;-9.00;99.90;;;;;;5093526;28;20522;-73
2022/11/26 00:20:16;;;;;;;17.87;9.73;;;-8.80;99.90;;;;;;5096136;28;20427;-78
2022/11/26 00:22:57;;;;;;;16.53;9.30;;;-8.50;99.90;;;;;;5091152;28;20680;-80
2022/11/26 00:25:31;;;;;;;17.57;8.43;;;-8.70;99.90;;;;;;5085531;28;20477;-77
2022/11/26 00:27:58;;;;;;;12.93;7.90;;;-8.70;99.90;;;;;;5094774;28;20456;-78
2022/11/26 00:30:26;;;;;;;15.60;8.97;;;-9.20;99.90;;;;;;5095204;28;20445;-76
2022/11/26 00:32:53;;;;;;;14.13;8.40;;;-9.60;99.90;;;;;;5088108;28;20548;-77
2022/11/26 00:35:20;;;;;;;16.87;8.90;;;-9.50;99.90;;;;;;5091738;28;20431;-77
2022/11/26 00:37:55;;;;;;;15.80;10.03;;;-9.80;99.90;;;;;;5088270;28;20524;-78
2022/11/26 00:40:34;;;;;;;20.37;9.43;;;-9.00;99.90;;;;;;5087796;28;20429;-75
2022/11/26 00:43:00;;;;;;;14.10;9.03;;;-9.10;99.90;;;;;;5084112;28;20435;-78
2022/11/26 00:45:28;;;;;;;17.20;9.93;;;-9.30;99.90;;;;;;5091198;28;20535;-78
2022/11/26 00:47:56;;;;;;;24.17;10.17;;;-9.60;99.90;;;;;;5095414;28;20207;-78
2022/11/26 00:50:25;;;;;;;18.43;9.67;;;-9.50;99.90;;;;;;5090478;28;20416;-77
2022/11/26 00:52:54;;;;;;;12.90;8.70;;;-9.70;99.90;;;;;;5111761;28;20526;-79
2022/11/26 00:55:31;;;;;;;14.57;8.07;;;-9.30;99.90;;;;;;5085287;28;20510;-79
2022/11/26 00:57:57;;;;;;;22.27;9.23;;;-9.60;99.90;;;;;;5089365;28;20419;-79
2022/11/26 01:00:25;;;;;;;15.97;8.60;;;-9.80;99.90;;;;;;5090532;28;20890;-78
2022/11/26 01:02:52;;;;;;;19.73;8.50;;;-10.10;99.90;;;;;;5087782;28;20260;-80
2022/11/26 01:05:19;;;;;;;16.57;9.57;;;-10.30;99.90;;;;;;5095411;28;20423;-78
2022/11/26 01:07:45;;;;;;;12.33;7.43;;;-9.70;99.90;;;;;;5092939;28;21247;-78
2022/11/26 01:10:26;;;;;;;18.73;9.33;;;-9.70;99.90;;;;;;5093770;28;20438;-77
2022/11/26 01:12:53;;;;;;;17.80;8.37;;;-9.90;99.90;;;;;;5093892;28;20430;-79
2022/11/26 01:15:22;;;;;;;22.07;7.73;;;-9.50;99.90;;;;;;5093554;28;20834;-76
2022/11/26 01:17:48;;;;;;;21.07;9.00;;;-9.80;99.90;;;;;;5093876;28;20472;-77
2022/11/26 01:20:30;;;;;;;15.17;8.17;;;-9.70;99.90;;;;;;5086894;28;20443;-80
2022/11/26 01:22:57;;;;;;;17.40;9.23;;;-8.50;99.90;;;;;;5084525;28;20496;-80
2022/11/26 01:25:25;;;;;;;18.37;9.40;;;-10.00;99.90;;;;;;5092582;28;20909;-78
2022/11/26 01:27:53;;;;;;;12.67;8.00;;;-9.50;99.90;;;;;;5087708;28;20459;-78
2022/11/26 01:30:29;;;;;;;12.77;7.60;;;-9.50;99.90;;;;;;5084042;28;20423;-76
2022/11/26 01:32:55;;;;;;;13.80;7.80;;;-7.90;99.90;;;;;;5090891;28;20446;-78
2022/11/26 01:35:21;;;;;;;13.27;7.93;;;-9.10;99.90;;;;;;5087118;28;20893;-76
2022/11/26 01:37:48;;;;;;;24.77;8.73;;;-9.40;99.90;;;;;;5087762;28;20183;-79
2022/11/26 01:40:37;;;;;;;14.00;7.83;;;-9.20;99.90;;;;;;5089364;28;20700;-78
2022/11/26 01:43:24;;;;;;;19.93;9.70;;;-9.00;99.90;;;;;;5084177;28;20487;-77
2022/11/26 01:45:49;;;;;;;15.80;7.53;;;-9.20;99.90;;;;;;5087240;28;20411;-76
2022/11/26 01:48:33;;;;;;;15.83;7.63;;;-8.70;99.90;;;;;;5094993;28;20434;-80
2022/11/26 01:51:07;;;;;;;13.73;6.93;;;-9.80;99.90;;;;;;5091562;28;20204;-76
2022/11/26 01:53:53;;;;;;;15.47;8.17;;;-9.70;99.90;;;;;;5092327;28;20443;-77
2022/11/26 01:56:32;;;;;;;12.03;6.90;;;-9.50;99.90;;;;;;5081716;28;20520;-77
2022/11/26 01:59:07;;;;;;;13.17;7.10;;;-9.50;99.90;;;;;;5091113;28;20476;-79
2022/11/26 02:01:34;;;;;;;13.73;7.17;;;-9.80;99.90;;;;;;5104063;28;20410;-78
2022/11/26 02:04:17;;;;;;;13.23;7.00;;;-9.40;99.90;;;;;;5098238;28;20897;-77
2022/11/26 02:06:45;;;;;;;17.03;7.83;;;-9.70;99.90;;;;;;5087899;28;20451;-80
2022/11/26 02:09:12;;;;;;;14.27;7.33;;;-9.40;99.90;;;;;;5098148;28;20482;-79
2022/11/26 02:11:38;;;;;;;14.20;7.73;;;-9.20;99.90;;;;;;5086757;28;20435;-79
2022/11/26 02:14:09;;;;;;;14.77;7.03;;;-9.20;99.90;;;;;;5092769;28;20459;-79
2022/11/26 02:16:46;;;;;;;16.47;8.03;;;-8.90;99.90;;;;;;5098302;28;20434;-79
2022/11/26 02:19:42;;;;;;;24.43;9.30;;;-8.40;99.90;;;;;;5096647;28;20476;-74
2022/11/26 02:22:20;;;;;;;13.47;6.30;;;-9.20;99.90;;;;;;5094296;28;20476;-80
2022/11/26 02:24:59;;;;;;;12.03;6.80;;;-9.90;99.90;;;;;;5091612;28;20513;-78
2022/11/26 02:28:00;;;;;;;10.63;6.57;;;-9.40;99.90;;;;;;5086698;28;20455;-77
2022/11/26 02:30:30;;;;;;;13.97;7.23;;;-9.30;99.90;;;;;;5044947;28;20507;-78
2022/11/26 02:33:17;;;;;;;13.80;6.90;;;-9.60;99.90;;;;;;5089109;28;20411;-79
2022/11/26 02:36:15;;;;;;;13.67;7.17;;;-9.60;99.90;;;;;;5093406;28;20419;-80
2022/11/26 02:38:40;;;;;;;16.17;7.70;;;-9.70;99.90;;;;;;5077329;28;20458;-80
2022/11/26 02:41:07;;;;;;;9.50;6.20;;;-8.80;99.90;;;;;;5089400;28;21065;-80
2022/11/26 02:43:35;;;;;;;15.63;7.80;;;-9.40;99.90;;;;;;5093472;28;20180;-80
2022/11/26 02:46:11;;;;;;;14.27;7.20;;;-9.50;99.90;;;;;;5095086;28;20432;-79
2022/11/26 02:48:43;;;;;;;15.93;7.20;;;-9.70;99.90;;;;;;5092048;28;20460;-79
2022/11/26 02:51:17;;;;;;;11.17;6.07;;;-9.10;99.90;;;;;;5098242;28;20434;-79
2022/11/26 02:53:45;;;;;;;9.90;6.20;;;-9.00;99.90;;;;;;5091450;28;20439;-78
2022/11/26 02:56:18;;;;;;;17.73;6.43;;;-8.60;99.90;;;;;;5097191;28;20411;-78
2022/11/26 02:58:44;;;;;;;12.17;6.83;;;-9.40;99.90;;;;;;5097447;28;20476;-79
2022/11/26 03:01:28;;;;;;;10.97;6.53;;;-9.30;99.90;;;;;;5097451;28;20427;-80
2022/11/26 03:03:59;;;;;;;14.70;6.63;;;-9.40;99.90;;;;;;5094336;28;20439;-79
2022/11/26 03:06:30;;;;;;;17.07;6.93;;;-9.90;99.90;;;;;;5096309;28;20458;-80
2022/11/26 03:08:55;;;;;;;13.33;6.17;;;-9.10;99.90;;;;;;5091732;28;20440;-80
2022/11/26 03:11:21;;;;;;;12.00;5.77;;;-9.20;99.90;;;;;;5084524;28;20428;-79
2022/11/26 03:13:48;;;;;;;15.07;7.50;;;-9.00;99.90;;;;;;5094246;28;20214;-80
2022/11/26 03:16:14;;;;;;;14.10;6.70;;;-9.10;99.90;;;;;;5090945;28;20193;-79
2022/11/26 03:18:40;;;;;;;8.63;5.90;;;-9.50;99.90;;;;;;5085362;28;20790;-76
2022/11/26 03:21:05;;;;;;;14.93;6.33;;;-9.60;99.90;;;;;;5096255;28;20431;-78
2022/11/26 03:23:31;;;;;;;12.10;6.37;;;-9.40;99.90;;;;;;5092212;28;20176;-80
2022/11/26 03:25:57;;;;;;;10.67;5.90;;;-8.80;99.90;;;;;;5091926;28;20186;-80
2022/11/26 03:28:23;;;;;;;8.37;6.50;;;-8.80;99.90;;;;;;5088295;28;20485;-79
2022/11/26 03:30:50;;;;;;;11.27;6.17;;;-9.30;99.90;;;;;;5087953;28;20400;-80
2022/11/26 03:33:15;;;;;;;11.87;6.70;;;-8.80;99.90;;;;;;5086065;28;20179;-81
2022/11/26 03:35:41;;;;;;;8.90;5.77;;;-8.30;99.90;;;;;;5094569;28;20873;-79
2022/11/26 03:38:07;;;;;;;11.00;7.00;;;-8.70;99.90;;;;;;5096559;28;20183;-80
2022/11/26 03:40:33;;;;;;;10.00;5.43;;;-7.30;99.90;;;;;;5092962;28;20189;-79
2022/11/26 03:42:58;;;;;;;15.67;5.83;;;-8.10;99.90;;;;;;5094588;28;20227;-79
2022/11/26 03:45:25;;;;;;;12.10;6.53;;;-9.00;99.90;;;;;;5077461;28;20268;-79
2022/11/26 03:47:50;;;;;;;12.13;5.87;;;-8.70;99.90;;;;;;5090429;28;20255;-78
2022/11/26 03:50:16;;;;;;;10.43;5.70;;;-8.80;99.90;;;;;;5093463;28;20517;-80
2022/11/26 03:52:42;;;;;;;16.53;5.93;;;-8.60;99.90;;;;;;5096656;28;20199;-79
2022/11/26 03:55:08;;;;;;;9.40;6.33;;;-8.40;99.90;;;;;;5088518;28;20260;-79
2022/11/26 03:57:34;;;;;;;13.60;6.03;;;-8.60;99.90;;;;;;5090168;28;20186;-82
2022/11/26 04:00:00;;;;;;;14.03;5.17;;;-8.50;99.90;;;;;;5096985;28;20900;-83
2022/11/26 04:02:26;;;;;;;13.50;6.10;;;-8.70;99.90;;;;;;5085214;28;20202;-79
2022/11/26 04:04:51;;;;;;;9.07;5.37;;;-9.20;99.90;;;;;;5092237;28;20190;-79
2022/11/26 04:07:17;;;;;;;9.67;5.80;;;-9.50;99.90;;;;;;5096610;28;20466;-82
2022/11/26 04:09:44;;;;;;;23.37;6.67;;;-9.40;99.90;;;;;;5087914;28;20203;-82
2022/11/26 04:12:10;;;;;;;13.13;5.17;;;-8.80;99.90;;;;;;5088502;28;20435;-80
2022/11/26 04:14:35;;;;;;;9.23;5.33;;;-8.70;99.90;;;;;;5093260;28;20582;-80
2022/11/26 04:17:01;;;;;;;11.67;5.93;;;-8.30;99.90;;;;;;5093237;28;20187;-80
2022/11/26 04:19:27;;;;;;;12.03;5.73;;;-8.40;99.90;;;;;;5092582;28;20184;-80
2022/11/26 04:21:52;;;;;;;14.43;5.37;;;-8.10;99.90;;;;;;5088316;28;20190;-80
2022/11/26 04:24:18;;;;;;;13.93;6.17;;;-8.20;99.90;;;;;;5100898;28;20243;-78
2022/11/26 04:26:44;;;;;;;11.07;5.80;;;-8.10;99.90;;;;;;5095942;28;20246;-80
2022/11/26 04:29:10;;;;;;;11.03;6.13;;;-8.20;99.90;;;;;;5101588;28;20265;-80
2022/11/26 04:31:35;;;;;;;10.60;5.47;;;-8.50;99.90;;;;;;5093736;28;20204;-82
2022/11/26 04:34:01;;;;;;;13.57;5.50;;;-8.40;99.90;;;;;;5096965;28;20579;-79
2022/11/26 04:36:27;;;;;;;16.23;5.87;;;-8.10;99.90;;;;;;5097091;28;20188;-81
2022/11/26 04:38:53;;;;;;;9.03;4.90;;;-8.20;99.90;;;;;;5096331;28;20182;-80
2022/11/26 04:41:18;;;;;;;8.17;5.77;;;-8.20;99.90;;;;;;5097834;28;20198;-80
2022/11/26 04:43:44;;;;;;;17.70;5.97;;;-8.40;99.90;;;;;;5095493;28;20193;-81
2022/11/26 04:46:10;;;;;;;12.47;5.43;;;-8.50;99.90;;;;;;5099186;28;20185;-82
2022/11/26 04:48:36;;;;;;;15.07;5.33;;;-8.40;99.90;;;;;;5098564;28;20182;-79
2022/11/26 04:51:01;;;;;;;7.67;4.67;;;-8.40;99.90;;;;;;5095718;28;20186;-79
2022/11/26 04:53:27;;;;;;;9.67;5.47;;;-8.00;99.90;;;;;;5095421;28;20509;-78
2022/11/26 04:55:53;;;;;;;13.10;4.97;;;-7.90;99.90;;;;;;5098514;28;20503;-78
2022/11/26 04:58:20;;;;;;;8.57;5.63;;;-8.20;99.90;;;;;;5099487;28;20266;-73
2022/11/26 05:00:46;;;;;;;6.73;4.73;;;-8.00;99.90;;;;;;5085629;28;20527;-77
2022/11/26 05:03:12;;;;;;;12.20;5.87;;;-7.90;99.90;;;;;;5083237;28;20474;-75
2022/11/26 05:05:39;;;;;;;9.53;5.13;;;-8.00;99.90;;;;;;5091594;28;20459;-78
2022/11/26 05:08:05;;;;;;;16.67;5.27;;;-7.40;99.90;;;;;;5088584;28;20466;-80
2022/11/26 05:10:31;;;;;;;12.47;5.67;;;-6.80;99.90;;;;;;5089309;28;20432;-76
2022/11/26 05:12:57;;;;;;;11.90;5.10;;;-8.00;99.90;;;;;;5093610;28;20933;-76
2022/11/26 05:15:23;;;;;;;17.77;5.23;;;-6.80;99.90;;;;;;5091522;28;20183;-78
2022/11/26 05:17:49;;;;;;;15.20;5.70;;;-7.90;99.90;;;;;;5083627;28;20266;-73
2022/11/26 05:20:14;;;;;;;18.27;6.20;;;-7.80;99.90;;;;;;5083376;28;20176;-74
2022/11/26 05:22:41;;;;;;;21.50;5.37;;;-5.90;99.90;;;;;;5090515;28;20225;-73
2022/11/26 05:25:09;;;;;;;13.80;5.33;;;-7.70;99.90;;;;;;5092139;28;20190;-79
2022/11/26 05:27:35;;;;;;;9.37;5.10;;;-7.50;99.90;;;;;;5090906;28;21088;-76
2022/11/26 05:30:03;;;;;;;11.00;4.67;;;-7.50;99.90;;;;;;5094264;28;20736;-75
2022/11/26 05:32:29;;;;;;;10.93;4.80;;;-7.40;99.90;;;;;;5093998;28;20778;-74
2022/11/26 05:34:54;;;;;;;12.60;6.37;;;-7.70;99.90;;;;;;5083777;28;20518;-78
2022/11/26 05:37:20;;;;;;;9.43;5.37;;;-8.00;99.90;;;;;;5094640;28;20666;-78
2022/11/26 05:39:46;;;;;;;9.20;4.30;;;-8.40;99.90;;;;;;5098938;28;20178;-79
2022/11/26 05:42:11;;;;;;;13.57;5.30;;;-8.40;99.90;;;;;;5098349;28;20187;-79
2022/11/26 05:44:37;;;;;;;16.97;4.93;;;-8.70;99.90;;;;;;5091704;28;20182;-77
2022/11/26 05:47:03;;;;;;;8.07;4.97;;;-8.90;99.90;;;;;;5091857;28;20665;-78
2022/11/26 05:49:29;;;;;;;16.40;5.33;;;-8.90;99.90;;;;;;5096519;28;20307;-79
2022/11/26 05:51:54;;;;;;;9.87;4.50;;;-9.40;99.90;;;;;;5090688;28;20499;-78
2022/11/26 05:54:20;;;;;;;12.60;5.33;;;-9.50;99.90;;;;;;5095013;28;20339;-79
2022/11/26 05:56:46;;;;;;;6.40;4.93;;;-10.20;99.90;;;;;;5090247;28;20244;-80
2022/11/26 05:59:12;;;;;;;7.63;4.53;;;-9.60;99.90;;;;;;5094294;28;20194;-75
2022/11/26 06:01:38;;;;;;;10.47;4.30;;;-9.60;99.90;;;;;;5096933;28;20182;-75
2022/11/26 06:04:04;;;;;;;6.57;4.17;;;-9.40;99.90;;;;;;5090756;28;20291;-79
2022/11/26 06:06:30;;;;;;;6.47;4.40;;;-9.60;99.90;;;;;;5091540;28;20557;-79
2022/11/26 06:08:55;;;;;;;12.20;5.47;;;-9.70;99.90;;;;;;5092404;28;20506;-76
2022/11/26 06:11:21;;;;;;;9.03;4.33;;;-8.70;99.90;;;;;;5092055;28;20191;-73
2022/11/26 06:13:47;;;;;;;15.93;6.23;;;-10.00;99.90;;;;;;5093408;28;20179;-80
2022/11/26 06:16:13;;;;;;;10.07;5.17;;;-9.60;99.90;;;;;;5097954;28;20179;-80
2022/11/26 06:18:39;;;;;;;11.00;4.17;;;-9.80;99.90;;;;;;5098154;28;20178;-79
2022/11/26 06:21:06;;;;;;;16.13;5.10;;;-9.60;99.90;;;;;;5091439;28;20258;-74
2022/11/26 06:23:32;;;;;;;13.00;5.43;;;-9.70;99.90;;;;;;5098097;28;20423;-82
2022/11/26 06:26:03;;;;;;;12.70;4.60;;;-9.50;99.90;;;;;;5091655;28;20446;-77
2022/11/26 06:28:29;;;;;;;8.93;4.20;;;-9.40;99.90;;;;;;5086312;28;20462;-78
2022/11/26 06:30:54;;;;;;;16.47;5.33;;;-9.30;99.90;;;;;;5089776;28;20443;-74
2022/11/26 06:33:20;;;;;;;15.03;4.53;;;-9.20;99.90;;;;;;5093625;28;20186;-76
2022/11/26 06:35:46;;;;;;;7.33;4.87;;;-7.00;99.90;;;;;;5085921;28;20178;-73
2022/11/26 06:38:13;;;;;;;11.37;5.60;;;-9.20;99.90;;;;;;5097623;28;20183;-73
2022/11/26 06:40:39;;;;;;;9.10;4.33;;;-9.30;99.90;;;;;;5094566;28;20431;-79
2022/11/26 06:43:07;;;;;;;21.33;5.60;;;-9.40;99.90;;;;;;5095948;28;20427;-71
2022/11/26 06:45:33;;;;;;;10.80;5.60;;;-9.40;99.90;;;;;;5092536;28;20270;-84
2022/11/26 06:47:59;;;;;;;15.77;6.60;;;-9.40;99.90;;;;;;5091581;28;20484;-79
2022/11/26 06:50:25;;;;;;;7.63;5.27;;;-9.70;99.90;;;;;;5087219;28;20503;-79
2022/11/26 06:52:52;;;;;;;19.27;5.93;;;-9.60;99.90;;;;;;5096318;28;20504;-79
2022/11/26 06:55:18;;;;;;;14.47;6.00;;;-9.80;99.90;;;;;;5097412;28;20177;-78
2022/11/26 06:57:48;;;;;;;9.40;5.20;;;-9.60;99.90;;;;;;5093464;28;20901;-73
2022/11/26 07:00:14;;;;;;;11.23;3.90;;;-9.60;99.90;;;;;;5089015;28;20519;-81
2022/11/26 07:02:40;;;;;;;9.03;5.67;;;-9.60;99.90;;;;;;5086104;28;20450;-82
2022/11/26 07:05:06;;;;;;;9.03;4.40;;;-9.30;99.90;;;;;;5091608;28;20472;-83
2022/11/26 07:07:36;;;;;;;9.67;3.67;;;-9.40;99.90;;;;;;5096133;28;20449;-81
2022/11/26 07:10:02;;;;;;;8.33;4.80;;;-9.10;99.90;;;;;;5096980;28;20454;-79
2022/11/26 07:12:28;;;;;;;9.83;4.43;;;-9.20;99.90;;;;;;5094056;28;20419;-80
2022/11/26 07:14:54;;;;;;;8.83;4.27;;;-9.30;99.90;;;;;;5092398;28;20429;-83
2022/11/26 07:17:19;;;;;;;10.40;4.27;;;-9.20;99.90;;;;;;5093048;28;20184;-79
2022/11/26 07:19:45;;;;;;;14.37;5.70;;;-9.00;99.90;;;;;;5086639;28;20184;-82
2022/11/26 07:22:11;;;;;;;6.17;4.03;;;-9.30;99.90;;;;;;5095428;28;20279;-77
2022/11/26 07:24:36;;;;;;;7.33;4.00;;;-9.20;99.90;;;;;;5098692;28;20178;-84
2022/11/26 07:27:02;;;;;;;6.80;4.73;;;-9.20;99.90;;;;;;5097256;28;20220;-81
2022/11/26 07:29:28;;;;;;;7.33;3.97;;;-9.20;99.90;;;;;;5093701;28;20262;-77
2022/11/26 07:31:54;;;;;;;8.13;4.27;;;-9.20;99.90;;;;;;5106939;28;20178;-83
2022/11/26 07:34:19;;;;;;;7.67;4.83;;;-9.00;99.90;;;;;;5087776;28;20179;-79
2022/11/26 07:36:45;;;;;;;10.80;5.83;;;-9.00;99.90;;;;;;5091543;28;20226;-84
2022/11/26 07:39:11;;;;;;;14.07;5.70;;;-8.90;99.90;;;;;;5084110;28;20183;-81
2022/11/26 07:41:37;;;;;;;26.30;8.23;;;-8.40;99.90;;;;;;5095249;28;20952;-81
2022/11/26 07:44:03;;;;;;;13.03;7.33;;;-8.40;99.90;;;;;;5097463;28;20430;-84
2022/11/26 07:46:29;;;;;;;12.83;6.00;;;-8.30;99.90;;;;;;5085505;28;20459;-84
2022/11/26 07:48:55;;;;;;;10.57;5.40;;;-8.80;99.90;;;;;;5096253;28;20178;-78
2022/11/26 07:51:28;;;;;;;19.70;6.93;;;-9.00;99.90;;;;;;5089656;28;20210;-76
2022/11/26 07:53:57;;;;;;;18.10;6.10;;;-9.30;99.90;;;;;;5093179;28;20194;-77
2022/11/26 07:56:23;;;;;;;16.40;6.43;;;-10.60;99.90;;;;;;5094461;28;20418;-84
2022/11/26 07:58:49;;;;;;;17.57;6.40;;;-12.30;99.90;;;;;;5105725;28;20556;-85
2022/11/26 08:01:22;;;;;;;26.80;6.37;;;-11.60;99.90;;;;;;5102042;28;20451;-83
2022/11/26 08:03:49;;;;;;;25.60;6.60;;;-13.50;99.90;;;;;;5100396;28;20215;-90
2022/11/26 08:06:18;;;;;;;20.80;6.93;;;-13.00;99.90;;;;;;5096520;28;20936;-75
2022/11/26 08:08:45;;;;;;;11.67;5.30;;;-13.80;99.90;;;;;;5101328;28;20415;-78
2022/11/26 08:11:25;;;;;;;24.40;5.43;;;-13.70;99.90;;;;;;5094380;28;20468;-75
2022/11/26 08:13:59;;;;;;;16.83;5.83;;;-12.50;99.90;;;;;;5086927;28;20427;-77
2022/11/26 08:16:25;;;;;;;21.63;6.80;;;-14.00;99.90;;;;;;5084253;28;20430;-72
2022/11/26 08:18:59;;;;;;;23.93;7.60;;;-13.70;99.90;;;;;;5088730;28;20454;-73
2022/11/26 08:21:26;;;;;;;21.80;7.60;;;-14.00;99.90;;;;;;5085962;28;20432;-73
2022/11/26 08:23:52;;;;;;;21.07;6.87;;;-12.90;99.90;;;;;;5096197;28;20426;-76
2022/11/26 08:26:19;;;;;;;33.77;8.43;;;-13.00;99.90;;;;;;5092483;28;21022;-73
2022/11/26 08:28:46;;;;;;;27.83;7.07;;;-13.20;99.90;;;;;;5094259;28;20426;-75
2022/11/26 08:31:13;;;;;;;29.80;7.60;;;-12.50;99.90;;;;;;5089761;28;20521;-73
2022/11/26 08:33:39;;;;;;;16.03;6.37;;;-12.40;99.90;;;;;;5087088;28;20254;-75
2022/11/26 08:36:06;;;;;;;23.83;7.70;;;-13.00;99.90;;;;;;5089888;28;20518;-79
2022/11/26 08:38:32;;;;;;;19.70;6.40;;;-13.00;99.90;;;;;;5087158;28;20235;-71
2022/11/26 08:41:03;;;;;;;18.83;6.47;;;-12.90;99.90;;;;;;5094570;28;20640;-75
2022/11/26 08:43:34;;;;;;;18.07;6.47;;;-13.60;99.90;;;;;;5083496;28;20183;-73
2022/11/26 08:46:00;;;;;;;14.53;6.73;;;-13.00;99.90;;;;;;5088879;28;20542;-81
2022/11/26 08:48:28;;;;;;;13.07;6.80;;;-14.60;99.90;;;;;;5094176;28;20256;-75
2022/11/26 08:51:07;;;;;;;21.77;6.80;;;-13.80;99.90;;;;;;5094699;28;20505;-77
2022/11/26 08:53:34;;;;;;;23.47;5.73;;;-12.50;99.90;;;;;;5092848;28;20198;-79
2022/11/26 08:56:07;;;;;;;19.50;6.70;;;-12.00;99.90;;;;;;5094289;28;20274;-76
2022/11/26 08:58:35;;;;;;;22.13;6.87;;;-12.40;99.90;;;;;;5089797;28;20516;-74
2022/11/26 09:01:15;;;;;;;20.10;6.70;;;-14.00;99.90;;;;;;5082536;28;20179;-79
2022/11/26 09:03:42;;;;;;;16.77;5.40;;;-14.00;99.90;;;;;;5094691;28;20221;-83
2022/11/26 09:06:08;;;;;;;18.70;5.60;;;-13.20;99.90;;;;;;5095095;28;20179;-76
2022/11/26 09:09:11;;;;;;;29.63;6.23;;;-12.60;99.90;;;;;;5084269;28;20210;-80
2022/11/26 09:11:22;;;;;;;14.07;4.93;;;-13.30;99.90;;;;;;5098496;28;20217;-79
2022/11/26 09:13:48;;;;;;;23.70;5.37;;;-12.50;99.90;;;;;;5093255;28;20186;-78
2022/11/26 09:16:13;;;;;;;20.10;5.93;;;-13.60;99.90;;;;;;5095017;28;20175;-74
2022/11/26 09:18:39;;;;;;;19.83;6.07;;;-14.10;99.90;;;;;;5086808;28;20197;-81
2022/11/26 09:21:05;;;;;;;22.10;6.53;;;-13.90;99.90;;;;;;5101728;28;20228;-83
2022/11/26 09:23:31;;;;;;;22.77;5.70;;;-13.50;99.90;;;;;;5098112;28;20596;-82
2022/11/26 09:25:56;;;;;;;11.60;4.90;;;-14.50;99.90;;;;;;5092770;28;20655;-83
2022/11/26 09:28:22;;;;;;;16.23;4.87;;;-14.40;99.90;;;;;;5095085;28;20683;-87
2022/11/26 09:30:48;;;;;;;20.33;6.90;;;-14.40;99.90;;;;;;5098099;28;20541;-85
2022/11/26 09:33:14;;;;;;;11.03;5.87;;;-13.70;99.90;;;;;;5094599;28;20182;-88
2022/11/26 09:35:39;;;;;;;28.00;8.37;;;-14.00;99.90;;;;;;5099121;28;20181;-87
2022/11/26 09:38:06;;;;;;;18.50;6.60;;;-13.00;99.90;;;;;;5093157;28;20184;-86
2022/11/26 09:41:01;;;;;;;19.87;4.97;;;-12.50;99.90;;;;;;5097671;28;20281;-87
2022/11/26 09:44:01;;;;;;;16.10;5.53;;;-11.10;99.90;;;;;;5100013;28;20497;-84
2022/11/26 09:46:35;;;;;;;16.13;5.97;;;-12.40;99.90;;;;;;5095711;28;20184;-84
2022/11/26 09:49:03;;;;;;;18.57;6.10;;;-13.90;99.90;;;;;;5106507;28;20257;-89
2022/11/26 09:51:32;;;;;;;25.43;5.83;;;-13.80;99.90;;;;;;5099871;28;20182;-88
2022/11/26 09:54:00;;;;;;;16.57;4.90;;;-13.00;99.90;;;;;;5093609;28;20205;-84
2022/11/26 09:56:26;;;;;;;20.10;6.77;;;-12.30;99.90;;;;;;5094822;28;20176;-81
2022/11/26 09:59:04;;;;;;;20.07;6.63;;;-9.50;99.90;;;;;;5092320;28;20178;-85
2022/11/26 10:01:32;;;;;;;14.50;4.80;;;-12.20;99.90;;;;;;5096799;28;20646;-84
2022/11/26 10:03:59;;;;;;;13.13;4.27;;;-10.20;99.90;;;;;;5100956;28;20183;-85
2022/11/26 10:06:38;;;;;;;16.53;4.60;;;-11.90;99.90;;;;;;5102142;28;20277;-85
2022/11/26 10:09:36;;;;;;;23.97;4.50;;;-12.10;99.90;;;;;;5094319;28;20179;-77
2022/11/26 10:12:39;;;;;;;27.43;5.23;;;-11.70;99.90;;;;;;5087537;28;20171;-84
2022/11/26 10:15:17;;;;;;;12.40;4.47;;;-10.90;99.90;;;;;;5090510;28;20184;-81
2022/11/26 10:18:13;;;;;;;13.33;4.20;;;-12.40;99.90;;;;;;5097274;28;20226;-80
2022/11/26 10:20:50;;;;;;;15.73;3.93;;;-13.60;99.90;;;;;;5098032;28;20182;-74
2022/11/26 10:23:30;;;;;;;13.53;4.70;;;-13.30;99.90;;;;;;5104364;28;20486;-77
2022/11/26 10:26:12;;;;;;;18.57;4.30;;;-14.30;99.90;;;;;;5093896;28;20722;-75
2022/11/26 10:28:46;;;;;;;8.67;3.87;;;-14.30;99.90;;;;;;5096926;28;20540;-72
2022/11/26 10:31:32;;;;;;;17.37;4.93;;;-15.20;99.90;;;;;;5078458;28;20201;-75
2022/11/26 10:34:01;;;;;;;30.50;7.23;;;-17.10;99.90;;;;;;5091542;28;20473;-76
2022/11/26 10:36:39;;;;;;;36.70;6.30;;;-15.50;99.90;;;;;;5095803;28;20219;-71
2022/11/26 10:39:06;;;;;;;18.37;4.27;;;-16.10;99.90;;;;;;5096503;28;20475;-74
2022/11/26 10:41:36;;;;;;;14.30;4.33;;;-17.00;99.90;;;;;;5094499;28;20186;-78
2022/11/26 10:44:39;;;;;;;20.20;5.37;;;-16.40;99.90;;;;;;5092905;28;20190;-76
2022/11/26 10:47:34;;;;;;;19.23;4.67;;;-16.60;99.90;;;;;;5085782;28;20229;-77
2022/11/26 10:50:04;;;;;;;16.40;5.13;;;-17.00;99.90;;;;;;5073950;28;20197;-71
2022/11/26 10:52:32;;;;;;;13.00;4.77;;;-15.40;99.90;;;;;;5091936;28;20202;-72
2022/11/26 10:55:15;;;;;;;19.90;5.47;;;-15.80;99.90;;;;;;5093057;28;20174;-75
2022/11/26 10:57:46;;;;;;;19.00;4.53;;;-19.30;99.90;;;;;;5086703;28;20665;-78
2022/11/26 11:00:36;;;;;;;8.53;3.67;;;-17.70;99.90;;;;;;5095694;28;20217;-76
2022/11/26 11:03:26;;;;;;;17.10;4.40;;;-16.50;99.90;;;;;;5093994;28;20641;-75
2022/11/26 11:06:10;;;;;;;20.30;4.67;;;-17.30;99.90;;;;;;5095468;28;20194;-77
2022/11/26 11:08:36;;;;;;;15.43;4.20;;;-14.50;99.90;;;;;;5091561;28;20288;-73
2022/11/26 11:11:03;;;;;;;19.00;5.13;;;-12.80;99.90;;;;;;5092527;28;20258;-79
2022/11/26 11:13:43;;;;;;;22.13;5.57;;;-15.50;99.90;;;;;;5092530;28;20573;-77
2022/11/26 11:16:11;;;;;;;13.87;4.67;;;-14.10;99.90;;;;;;5094005;28;20286;-73
2022/11/26 11:18:46;;;;;;;23.53;4.93;;;-15.50;99.90;;;;;;5091644;28;20181;-81
2022/11/26 11:21:16;;;;;;;17.47;5.30;;;-16.20;99.90;;;;;;5091502;28;20181;-73
2022/11/26 11:23:42;;;;;;;26.17;6.83;;;-13.60;99.90;;;;;;5100807;28;20216;-74
2022/11/26 11:26:22;;;;;;;22.47;4.97;;;-15.50;99.90;;;;;;5096807;28;20182;-78
2022/11/26 11:28:51;;;;;;;13.67;3.50;;;-14.60;99.90;;;;;;5095572;28;20187;-74
2022/11/26 11:31:22;;;;;;;15.27;5.07;;;-16.90;99.90;;;;;;5103162;28;20585;-75
2022/11/26 11:33:49;;;;;;;14.33;4.40;;;-13.10;99.90;;;;;;5095255;28;20266;-77
2022/11/26 11:36:18;;;;;;;7.77;4.07;;;-13.90;99.90;;;;;;5087044;28;20193;-79
2022/11/26 11:38:50;;;;;;;17.90;4.57;;;-15.40;99.90;;;;;;5081799;28;20709;-73
2022/11/26 11:41:36;;;;;;;14.07;3.80;;;-14.50;99.90;;;;;;5087094;28;20175;-78
2022/11/26 11:44:22;;;;;;;16.27;4.30;;;-15.70;99.90;;;;;;5090953;28;20183;-75
2022/11/26 11:46:56;;;;;;;18.47;4.00;;;-16.70;99.90;;;;;;5087151;28;20590;-74
2022/11/26 11:49:50;;;;;;;16.50;4.40;;;-16.60;99.90;;;;;;5095701;28;20182;-76
2022/11/26 11:52:36;;;;;;;16.17;5.00;;;-18.00;99.90;;;;;;5085936;28;20265;-77
2022/11/26 11:55:31;;;;;;;14.40;4.93;;;-16.70;99.90;;;;;;5091834;28;20268;-75
2022/11/26 11:58:45;;;;;;;15.10;5.27;;;-12.20;99.90;;;;;;5090339;28;20178;-76
2022/11/26 12:01:20;;;;;;;14.30;5.50;;;-11.90;99.90;;;;;;5072657;28;20252;-73
2022/11/26 12:04:22;;;;;;;20.27;4.30;;;-15.10;99.90;;;;;;5078536;28;20500;-76
2022/11/26 12:07:05;;;;;;;14.90;5.03;;;-13.90;99.90;;;;;;5090717;28;20251;-74
2022/11/26 12:09:40;;;;;;;12.70;3.43;;;-14.50;99.90;;;;;;5094154;28;20692;-76
2022/11/26 12:12:46;;;;;;;16.33;4.57;;;-15.50;99.90;;;;;;5095696;28;20463;-77
2022/11/26 12:15:25;;;;;;;12.73;4.20;;;-15.80;99.90;;;;;;5010542;28;20200;-79
2022/11/26 12:18:22;;;;;;;11.90;4.47;;;-17.50;99.90;;;;;;5001746;28;20189;-75
2022/11/26 12:21:15;;;;;;;14.80;4.30;;;-17.70;99.90;;;;;;5068168;28;20202;-75
2022/11/26 12:23:56;;;;;;;18.60;4.93;;;-15.90;99.90;;;;;;5090382;28;20187;-78
2022/11/26 12:26:28;;;;;;;15.27;4.43;;;-15.10;99.90;;;;;;5091737;28;20652;-76
2022/11/26 12:29:35;;;;;;;15.17;4.97;;;-16.30;99.90;;;;;;5086747;28;20578;-76
2022/11/26 12:32:10;;;;;;;17.17;4.43;;;-16.00;99.90;;;;;;5082134;28;20248;-76
2022/11/26 12:34:51;;;;;;;12.73;3.00;;;-14.80;99.90;;;;;;5090299;28;20206;-72
2022/11/26 12:37:30;;;;;;;25.97;5.03;;;-13.80;99.90;;;;;;5087667;28;20225;-76
2022/11/26 12:40:36;;;;;;;14.43;3.93;;;-13.70;99.90;;;;;;5077210;28;20179;-75
2022/11/26 12:43:17;;;;;;;13.07;3.97;;;-13.80;99.90;;;;;;5073455;28;20213;-80
2022/11/26 12:46:14;;;;;;;11.43;4.37;;;-15.20;99.90;;;;;;5095733;28;20642;-75
2022/11/26 12:48:48;;;;;;;11.93;4.20;;;-15.20;99.90;;;;;;5086691;28;20539;-76
2022/11/26 12:51:32;;;;;;;21.40;5.80;;;-14.10;99.90;;;;;;5094947;28;20186;-74
2022/11/26 12:54:29;;;;;;;20.00;5.03;;;-17.70;99.90;;;;;;5086990;28;20519;-78